createdAt,value
2018-09-06T00:02:24.611Z,99757.00
2018-09-06T00:04:56.313Z,99752.00
2018-09-06T00:07:26.565Z,99755.00
2018-09-06T00:09:58.283Z,99754.00
2018-09-06T00:12:28.973Z,99752.00
2018-09-06T00:14:59.416Z,99750.00
2018-09-06T00:17:29.837Z,99754.00
2018-09-06T00:20:01.534Z,99752.00
2018-09-06T00:22:31.706Z,99749.00
2018-09-06T00:25:01.963Z,99748.00
2018-09-06T00:27:34.105Z,99745.00
2018-09-06T00:30:04.374Z,99744.00
2018-09-06T00:32:34.927Z,99741.00
2018-09-06T00:35:05.133Z,99747.00
2018-09-06T00:40:24.196Z,99736.00
2018-09-06T00:42:54.981Z,99733.00
2018-09-06T00:45:25.217Z,99727.00
2018-09-06T00:47:55.498Z,99732.00
2018-09-06T00:50:25.668Z,99732.00
2018-09-06T00:52:56.141Z,99732.00
2018-09-06T00:55:26.616Z,99726.00
2018-09-06T01:03:28.537Z,99730.00
2018-09-06T01:06:15.632Z,99729.00
2018-09-06T01:08:45.962Z,99730.00
2018-09-06T01:11:16.437Z,99732.00
2018-09-06T01:13:46.804Z,99728.00
2018-09-06T01:16:17.137Z,99722.00
2018-09-06T01:18:47.279Z,99723.00
2018-09-06T01:21:17.656Z,99718.00
2018-09-06T01:23:48.408Z,99723.00
2018-09-06T01:26:18.632Z,99722.00
2018-09-06T01:28:48.916Z,99721.00
2018-09-06T01:31:19.280Z,99723.00
2018-09-06T01:33:49.436Z,99715.00
2018-09-06T01:36:24.732Z,99713.00
2018-09-06T01:38:55.018Z,99719.00
2018-09-06T01:41:25.908Z,99713.00
2018-09-06T01:43:56.134Z,99710.00
2018-09-06T01:46:27.030Z,99709.00
2018-09-06T01:48:57.752Z,99708.00
2018-09-06T01:51:28.428Z,99707.00
2018-09-06T01:53:58.784Z,99711.00
2018-09-06T01:56:29.215Z,99709.00
2018-09-06T01:58:59.486Z,99703.00
2018-09-06T02:01:30.485Z,99707.00
2018-09-06T02:04:01.348Z,99705.00
2018-09-06T02:06:31.850Z,99703.00
2018-09-06T02:09:02.315Z,99701.00
2018-09-06T02:11:32.547Z,99697.00
2018-09-06T02:14:02.755Z,99694.00
2018-09-06T02:16:33.224Z,99697.00
2018-09-06T02:19:03.597Z,99697.00
2018-09-06T02:21:33.891Z,99692.00
2018-09-06T02:24:04.213Z,99699.00
2018-09-06T02:26:34.650Z,99691.00
2018-09-06T02:29:04.883Z,99691.00
2018-09-06T02:31:35.306Z,99687.00
2018-09-06T02:34:05.484Z,99683.00
2018-09-06T02:36:36.760Z,99681.00
2018-09-06T02:39:14.309Z,99680.00
2018-09-06T02:41:44.525Z,99681.00
2018-09-06T02:44:14.753Z,99673.00
2018-09-06T02:46:45.284Z,99666.00
2018-09-06T02:49:15.656Z,99671.00
2018-09-06T02:51:46.313Z,99665.00
2018-09-06T02:54:16.466Z,99663.00
2018-09-06T02:56:46.784Z,99662.00
2018-09-06T02:59:17.303Z,99664.00
2018-09-06T03:01:50.945Z,99660.00
2018-09-06T03:04:43.362Z,99662.00
2018-09-06T03:07:22.221Z,99656.00
2018-09-06T03:09:57.170Z,99654.00
2018-09-06T03:15:14.277Z,99652.00
2018-09-06T03:18:02.446Z,99656.00
2018-09-06T03:20:33.210Z,99652.00
2018-09-06T03:23:11.513Z,99659.00
2018-09-06T03:25:41.739Z,99654.00
2018-09-06T03:28:12.005Z,99657.00
2018-09-06T03:30:42.454Z,99650.00
2018-09-06T03:33:12.687Z,99648.00
2018-09-06T03:35:42.845Z,99648.00
2018-09-06T03:38:13.080Z,99649.00
2018-09-06T03:40:43.329Z,99643.00
2018-09-06T03:43:13.547Z,99647.00
2018-09-06T03:45:44.020Z,99646.00
2018-09-06T03:48:14.568Z,99650.00
2018-09-06T03:50:44.780Z,99643.00
2018-09-06T03:53:15.267Z,99641.00
2018-09-06T03:55:45.623Z,99644.00
2018-09-06T03:58:16.292Z,99645.00
2018-09-06T04:00:46.580Z,99647.00
2018-09-06T04:03:16.768Z,99641.00
2018-09-06T04:05:47.536Z,99648.00
2018-09-06T04:08:17.860Z,99638.00
2018-09-06T04:10:48.247Z,99643.00
2018-09-06T04:13:18.860Z,99646.00
2018-09-06T04:15:49.090Z,99648.00
2018-09-06T04:18:19.236Z,99648.00
2018-09-06T04:20:49.753Z,99649.00
2018-09-06T04:23:19.973Z,99651.00
2018-09-06T04:25:50.241Z,99650.00
2018-09-06T04:28:20.453Z,99659.00
2018-09-06T04:30:50.736Z,99655.00
2018-09-06T04:33:21.057Z,99654.00
2018-09-06T04:35:51.557Z,99651.00
2018-09-06T04:38:22.112Z,99654.00
2018-09-06T04:40:52.565Z,99646.00
2018-09-06T04:43:22.825Z,99649.00
2018-09-06T04:45:53.378Z,99644.00
2018-09-06T04:48:23.676Z,99645.00
2018-09-06T04:50:54.138Z,99647.00
2018-09-06T04:53:24.480Z,99652.00
2018-09-06T04:55:54.847Z,99646.00
2018-09-06T04:58:25.219Z,99649.00
2018-09-06T05:00:55.924Z,99644.00
2018-09-06T05:03:26.572Z,99649.00
2018-09-06T05:05:57.374Z,99648.00
2018-09-06T05:08:27.857Z,99648.00
2018-09-06T05:10:58.105Z,99645.00
2018-09-06T05:13:28.854Z,99646.00
2018-09-06T05:15:59.630Z,99649.00
2018-09-06T05:18:29.839Z,99647.00
2018-09-06T05:21:00.433Z,99639.00
2018-09-06T05:23:30.854Z,99637.00
2018-09-06T05:26:01.128Z,99641.00
2018-09-06T05:28:31.411Z,99642.00
2018-09-06T05:31:01.668Z,99642.00
2018-09-06T05:33:31.897Z,99645.00
2018-09-06T05:36:02.846Z,99644.00
2018-09-06T05:38:33.050Z,99639.00
2018-09-06T05:41:03.366Z,99637.00
2018-09-06T05:43:33.662Z,99638.00
2018-09-06T05:46:03.989Z,99639.00
2018-09-06T05:48:34.412Z,99636.00
2018-09-06T05:51:04.857Z,99637.00
2018-09-06T05:53:42.350Z,99634.00
2018-09-06T05:56:12.916Z,99636.00
2018-09-06T05:58:54.956Z,99634.00
2018-09-06T06:01:25.542Z,99636.00
2018-09-06T06:03:55.823Z,99634.00
2018-09-06T06:06:26.402Z,99636.00
2018-09-06T06:08:56.943Z,99634.00
2018-09-06T06:11:27.395Z,99633.00
2018-09-06T06:14:07.742Z,99630.00
2018-09-06T06:16:48.572Z,99635.00
2018-09-06T06:19:19.261Z,99632.00
2018-09-06T06:21:49.487Z,99633.00
2018-09-06T06:24:20.720Z,99629.00
2018-09-06T06:26:50.997Z,99631.00
2018-09-06T06:29:21.218Z,99629.00
2018-09-06T06:31:53.303Z,99627.00
2018-09-06T06:34:23.953Z,99631.00
2018-09-06T06:36:54.244Z,99628.00
2018-09-06T06:39:26.778Z,99623.00
2018-09-06T06:41:57.023Z,99624.00
2018-09-06T06:44:28.480Z,99625.00
2018-09-06T06:46:59.069Z,99618.00
2018-09-06T06:49:29.639Z,99619.00
2018-09-06T06:52:00.334Z,99616.00
2018-09-06T06:54:30.897Z,99615.00
2018-09-06T06:57:01.275Z,99612.00
2018-09-06T06:59:31.494Z,99619.00
2018-09-06T07:02:02.019Z,99616.00
2018-09-06T07:04:32.191Z,99613.00
2018-09-06T07:07:02.642Z,99613.00
2018-09-06T07:09:33.847Z,99611.00
2018-09-06T07:12:04.077Z,99614.00
2018-09-06T07:14:35.353Z,99618.00
2018-09-06T07:17:05.607Z,99619.00
2018-09-06T07:19:35.872Z,99618.00
2018-09-06T07:22:06.081Z,99624.00
2018-09-06T07:24:36.261Z,99629.00
2018-09-06T07:27:06.681Z,99631.00
2018-09-06T07:29:36.857Z,99632.00
2018-09-06T07:32:07.351Z,99635.00
2018-09-06T07:34:40.021Z,99633.00
2018-09-06T07:37:10.242Z,99640.00
2018-09-06T07:39:40.448Z,99635.00
2018-09-06T07:42:10.809Z,99634.00
2018-09-06T07:44:41.206Z,99637.00
2018-09-06T07:47:12.068Z,99632.00
2018-09-06T07:49:42.392Z,99627.00
2018-09-06T07:52:12.772Z,99627.00
2018-09-06T07:54:42.988Z,99631.00
2018-09-06T07:57:13.423Z,99634.00
2018-09-06T07:59:44.077Z,99632.00
2018-09-06T08:02:14.432Z,99635.00
2018-09-06T08:04:45.005Z,99637.00
2018-09-06T08:07:15.689Z,99631.00
2018-09-06T08:09:46.166Z,99634.00
2018-09-06T08:12:16.685Z,99631.00
2018-09-06T08:14:47.053Z,99633.00
2018-09-06T08:17:17.681Z,99632.00
2018-09-06T08:19:48.086Z,99633.00
2018-09-06T08:22:18.373Z,99628.00
2018-09-06T08:24:48.834Z,99627.00
2018-09-06T08:27:19.437Z,99620.00
2018-09-06T08:29:49.857Z,99621.00
2018-09-06T08:32:20.126Z,99625.00
2018-09-06T08:34:50.285Z,99624.00
2018-09-06T08:37:20.634Z,99617.00
2018-09-06T08:39:50.837Z,99620.00
2018-09-06T08:42:21.408Z,99620.00
2018-09-06T08:44:51.660Z,99622.00
2018-09-06T08:47:22.245Z,99618.00
2018-09-06T08:49:52.801Z,99614.00
2018-09-06T08:52:23.201Z,99620.00
2018-09-06T08:54:53.653Z,99625.00
2018-09-06T08:57:24.136Z,99626.00
2018-09-06T08:59:54.841Z,99617.00
2018-09-06T09:02:25.282Z,99619.00
2018-09-06T09:04:55.787Z,99622.00
2018-09-06T09:07:26.292Z,99623.00
2018-09-06T09:09:56.926Z,99622.00
2018-09-06T09:12:27.191Z,99619.00
2018-09-06T09:14:57.698Z,99614.00
2018-09-06T09:17:28.195Z,99616.00
2018-09-06T09:19:58.817Z,99618.00
2018-09-06T09:22:29.284Z,99624.00
2018-09-06T09:24:59.857Z,99626.00
2018-09-06T09:27:30.229Z,99629.00
2018-09-06T09:30:00.810Z,99635.00
2018-09-06T09:32:31.253Z,99630.00
2018-09-06T09:35:02.806Z,99630.00
2018-09-06T09:37:34.877Z,99627.00
2018-09-06T09:40:06.583Z,99625.00
2018-09-06T09:42:37.054Z,99623.00
2018-09-06T09:45:08.915Z,99624.00
2018-09-06T09:50:10.448Z,99623.00
2018-09-06T09:52:51.548Z,99623.00
2018-09-06T09:55:26.310Z,99622.00
2018-09-06T09:57:57.511Z,99620.00
2018-09-06T10:00:36.151Z,99608.00
2018-09-06T10:03:15.932Z,99604.00
2018-09-06T10:05:54.368Z,99599.00
2018-09-06T10:08:29.770Z,99596.00
2018-09-06T10:11:02.261Z,99594.00
2018-09-06T10:13:32.853Z,99581.00
2018-09-06T10:16:09.669Z,99579.00
2018-09-06T10:18:40.039Z,99577.00
2018-09-06T10:21:12.163Z,99579.00
2018-09-06T10:23:42.754Z,99571.00
2018-09-06T10:26:13.156Z,99572.00
2018-09-06T10:28:43.469Z,99567.00
2018-09-06T10:31:14.071Z,99560.00
2018-09-06T10:33:44.619Z,99556.00
2018-09-06T10:36:15.043Z,99551.00
2018-09-06T10:38:45.495Z,99547.00
2018-09-06T10:41:16.106Z,99543.00
2018-09-06T10:43:46.586Z,99538.00
2018-09-06T10:46:17.315Z,99540.00
2018-09-06T10:48:47.547Z,99535.00
2018-09-06T10:51:19.847Z,99527.00
2018-09-06T10:53:50.352Z,99529.00
2018-09-06T10:56:20.843Z,99530.00
2018-09-06T10:58:52.121Z,99530.00
2018-09-06T11:01:23.796Z,99525.00
2018-09-06T11:03:55.510Z,99521.00
2018-09-06T11:06:26.243Z,99513.00
2018-09-06T11:08:56.739Z,99509.00
2018-09-06T11:11:27.283Z,99513.00
2018-09-06T11:13:57.536Z,99512.00
2018-09-06T11:16:27.999Z,99508.00
2018-09-06T11:18:58.458Z,99505.00
2018-09-06T11:21:28.968Z,99499.00
2018-09-06T11:23:59.689Z,99499.00
2018-09-06T11:26:29.941Z,99496.00
2018-09-06T11:29:00.265Z,99498.00
2018-09-06T11:31:30.588Z,99494.00
2018-09-06T11:34:01.818Z,99491.00
2018-09-06T11:36:32.519Z,99487.00
2018-09-06T11:39:04.998Z,99483.00
2018-09-06T11:41:35.550Z,99480.00
2018-09-06T11:44:06.578Z,99475.00
2018-09-06T11:46:37.143Z,99471.00
2018-09-06T11:49:07.418Z,99471.00
2018-09-06T11:51:38.102Z,99471.00
2018-09-06T11:54:08.365Z,99465.00
2018-09-06T11:56:38.842Z,99460.00
2018-09-06T11:59:09.216Z,99456.00
2018-09-06T12:01:39.526Z,99454.00
2018-09-06T12:04:09.893Z,99453.00
2018-09-06T12:06:40.346Z,99447.00
2018-09-06T12:09:10.560Z,99448.00
2018-09-06T12:11:41.170Z,99448.00
2018-09-06T12:14:11.828Z,99447.00
2018-09-06T12:16:42.623Z,99450.00
2018-09-06T12:19:16.369Z,99443.00
2018-09-06T12:21:46.857Z,99436.00
2018-09-06T12:24:17.372Z,99429.00
2018-09-06T12:26:48.761Z,99424.00
2018-09-06T12:29:34.229Z,99425.00
2018-09-06T12:32:05.065Z,99425.00
2018-09-06T12:34:35.453Z,99424.00
2018-09-06T12:37:10.986Z,99421.00
2018-09-06T12:39:42.513Z,99425.00
2018-09-06T12:42:14.447Z,99421.00
2018-09-06T12:44:46.785Z,99414.00
2018-09-06T12:47:18.425Z,99404.00
2018-09-06T12:49:49.879Z,99405.00
2018-09-06T12:52:21.232Z,99402.00
2018-09-06T12:54:52.500Z,99398.00
2018-09-06T12:57:23.429Z,99392.00
2018-09-06T12:59:54.045Z,99390.00
2018-09-06T13:02:25.463Z,99395.00
2018-09-06T13:04:56.642Z,99407.00
2018-09-06T13:07:27.006Z,99407.00
2018-09-06T13:09:57.337Z,99408.00
2018-09-06T13:12:28.306Z,99399.00
2018-09-06T13:14:58.815Z,99387.00
2018-09-06T13:17:29.604Z,99389.00
2018-09-06T13:20:02.443Z,99393.00
2018-09-06T13:22:32.798Z,99402.00
2018-09-06T13:25:03.849Z,99405.00
2018-09-06T13:27:34.636Z,99406.00
2018-09-06T13:30:05.370Z,99404.00
2018-09-06T13:32:40.761Z,99404.00
2018-09-06T13:35:11.020Z,99404.00
2018-09-06T13:37:41.879Z,99404.00
2018-09-06T13:40:13.355Z,99409.00
2018-09-06T13:42:43.550Z,99410.00
2018-09-06T13:45:13.904Z,99411.00
2018-09-06T13:47:44.219Z,99423.00
2018-09-06T13:50:14.388Z,99424.00
2018-09-06T13:52:45.040Z,99418.00
2018-09-06T13:55:15.413Z,99415.00
2018-09-06T13:57:47.362Z,99407.00
2018-09-06T14:00:19.437Z,99410.00
2018-09-06T14:02:50.164Z,99408.00
2018-09-06T14:05:21.061Z,99406.00
2018-09-06T14:07:51.682Z,99409.00
2018-09-06T14:10:22.149Z,99412.00
2018-09-06T14:12:52.737Z,99414.00
2018-09-06T14:15:23.157Z,99411.00
2018-09-06T14:17:54.040Z,99404.00
2018-09-06T14:20:25.257Z,99407.00
2018-09-06T14:22:56.989Z,99406.00
2018-09-06T14:25:27.371Z,99414.00
2018-09-06T14:27:58.161Z,99412.00
2018-09-06T14:30:29.069Z,99409.00
2018-09-06T14:32:59.748Z,99417.00
2018-09-06T14:35:34.980Z,99421.00
2018-09-06T14:38:05.630Z,99425.00
2018-09-06T14:40:38.338Z,99425.00
2018-09-06T14:43:22.689Z,99425.00
2018-09-06T14:45:53.331Z,99433.00
2018-09-06T14:48:24.252Z,99417.00
2018-09-06T14:50:55.877Z,99417.00
2018-09-06T14:53:26.601Z,99410.00
2018-09-06T14:55:59.795Z,99411.00
2018-09-06T14:58:30.793Z,99409.00
2018-09-06T15:01:17.670Z,99412.00
2018-09-06T15:03:54.956Z,99416.00
2018-09-06T15:06:25.661Z,99416.00
2018-09-06T15:08:56.827Z,99415.00
2018-09-06T15:11:30.816Z,99410.00
2018-09-06T15:14:10.757Z,99412.00
2018-09-06T15:19:20.200Z,99410.00
2018-09-06T15:21:50.873Z,99409.00
2018-09-06T15:24:23.843Z,99413.00
2018-09-06T15:26:54.768Z,99409.00
2018-09-06T15:29:26.152Z,99407.00
2018-09-06T15:31:56.710Z,99403.00
2018-09-06T15:34:32.990Z,99397.00
2018-09-06T15:37:03.634Z,99397.00
2018-09-06T15:39:35.824Z,99395.00
2018-09-06T15:42:09.470Z,99391.00
2018-09-06T15:44:41.585Z,99387.00
2018-09-06T15:47:14.021Z,99389.00
2018-09-06T15:49:45.701Z,99389.00
2018-09-06T15:52:24.863Z,99385.00
2018-09-06T15:54:56.271Z,99390.00
2018-09-06T15:57:26.720Z,99396.00
2018-09-06T15:59:56.950Z,99394.00
2018-09-06T16:02:27.189Z,99391.00
2018-09-06T16:05:07.071Z,99397.00
2018-09-06T16:07:37.722Z,99394.00
2018-09-06T16:10:08.096Z,99401.00
2018-09-06T16:12:38.468Z,99399.00
2018-09-06T16:15:09.986Z,99404.00
2018-09-06T16:17:40.560Z,99408.00
2018-09-06T16:20:11.027Z,99402.00
2018-09-06T16:22:41.559Z,99407.00
2018-09-06T16:25:15.700Z,99399.00
2018-09-06T16:27:54.487Z,99395.00
2018-09-06T16:30:25.292Z,99401.00
2018-09-06T16:32:55.779Z,99395.00
2018-09-06T16:35:26.212Z,99397.00
2018-09-06T16:38:06.810Z,99392.00
2018-09-06T16:40:37.357Z,99393.00
2018-09-06T16:46:07.959Z,99403.00
2018-09-06T16:48:41.605Z,99409.00
2018-09-06T16:51:16.008Z,99405.00
2018-09-06T16:53:47.918Z,99408.00
2018-09-06T16:56:18.454Z,99409.00
2018-09-06T16:58:49.006Z,99417.00
2018-09-06T17:01:22.935Z,99428.00
2018-09-06T17:03:54.261Z,99428.00
2018-09-06T17:06:24.907Z,99427.00
2018-09-06T17:08:55.776Z,99442.00
2018-09-06T17:11:38.992Z,99437.00
2018-09-06T17:14:09.597Z,99431.00
2018-09-06T17:16:39.965Z,99437.00
2018-09-06T17:19:10.440Z,99437.00
2018-09-06T17:21:40.877Z,99441.00
2018-09-06T17:24:11.464Z,99439.00
2018-09-06T17:26:41.767Z,99437.00
2018-09-06T17:29:12.099Z,99441.00
2018-09-06T17:31:42.354Z,99440.00
2018-09-06T17:34:13.850Z,99444.00
2018-09-06T17:36:45.357Z,99449.00
2018-09-06T17:39:18.151Z,99455.00
2018-09-06T17:41:49.614Z,99457.00
2018-09-06T17:44:20.002Z,99459.00
2018-09-06T17:46:52.308Z,99462.00
2018-09-06T17:49:24.678Z,99467.00
2018-09-06T17:51:55.183Z,99472.00
2018-09-06T17:54:26.015Z,99470.00
2018-09-06T17:56:56.351Z,99472.00
2018-09-06T17:59:26.853Z,99478.00
2018-09-06T18:01:57.618Z,99481.00
2018-09-06T18:04:29.260Z,99476.00
2018-09-06T18:06:59.660Z,99476.00
2018-09-06T18:09:30.895Z,99481.00
2018-09-06T18:12:01.600Z,99478.00
2018-09-06T18:14:32.454Z,99486.00
2018-09-06T18:17:03.044Z,99486.00
2018-09-06T18:19:33.614Z,99482.00
2018-09-06T18:22:04.597Z,99485.00
2018-09-06T18:24:38.118Z,99481.00
2018-09-06T18:27:23.198Z,99480.00
2018-09-06T18:29:54.001Z,99488.00
2018-09-06T18:32:36.065Z,99487.00
2018-09-06T18:35:10.002Z,99497.00
2018-09-06T18:37:49.515Z,99506.00
2018-09-06T18:40:25.753Z,99512.00
2018-09-06T18:42:58.248Z,99516.00
2018-09-06T18:45:37.210Z,99515.00
2018-09-06T18:48:21.444Z,99513.00
2018-09-06T18:54:25.144Z,99514.00
2018-09-06T18:56:55.807Z,99514.00
2018-09-06T18:59:26.828Z,99515.00
2018-09-06T19:01:58.142Z,99515.00
2018-09-06T19:04:28.526Z,99518.00
2018-09-06T19:06:58.799Z,99516.00
2018-09-06T19:09:29.468Z,99517.00
2018-09-06T19:12:00.848Z,99515.00
2018-09-06T19:14:31.681Z,99515.00
2018-09-06T19:17:03.975Z,99519.00
2018-09-06T19:19:39.032Z,99518.00
2018-09-06T19:22:09.814Z,99526.00
2018-09-06T19:24:40.500Z,99531.00
2018-09-06T19:27:12.260Z,99541.00
2018-09-06T19:29:44.350Z,99546.00
2018-09-06T19:32:17.459Z,99549.00
2018-09-06T19:34:50.080Z,99544.00
2018-09-06T19:37:21.463Z,99544.00
2018-09-06T19:39:51.934Z,99545.00
2018-09-06T19:42:22.902Z,99547.00
2018-09-06T19:44:53.726Z,99549.00
2018-09-06T19:47:23.994Z,99550.00
2018-09-06T19:49:55.013Z,99550.00
2018-09-06T19:52:26.552Z,99541.00
2018-09-06T19:54:58.315Z,99545.00
2018-09-06T19:57:29.224Z,99539.00
2018-09-06T20:24:13.864Z,99557.00
2018-09-06T20:26:44.148Z,99555.00
2018-09-06T20:29:14.590Z,99554.00
2018-09-06T20:31:46.215Z,99555.00
2018-09-06T20:34:16.711Z,99552.00
2018-09-06T20:36:47.642Z,99555.00
2018-09-06T20:39:18.191Z,99550.00
2018-09-06T20:41:48.718Z,99551.00
2018-09-06T20:44:19.198Z,99548.00
2018-09-06T20:46:49.299Z,99546.00
2018-09-06T20:49:20.539Z,99553.00
2018-09-06T20:51:51.105Z,99555.00
2018-09-06T20:54:21.353Z,99555.00
2018-09-06T20:56:52.104Z,99559.00
2018-09-06T20:59:26.569Z,99562.00
2018-09-06T21:02:00.838Z,99551.00
2018-09-06T21:04:32.173Z,99555.00
2018-09-06T21:07:03.543Z,99555.00
2018-09-06T21:09:34.104Z,99559.00
2018-09-06T21:12:04.382Z,99567.00
2018-09-06T21:14:34.935Z,99564.00
2018-09-06T21:17:05.174Z,99560.00
2018-09-06T21:19:35.370Z,99558.00
2018-09-06T21:22:05.747Z,99557.00
2018-09-06T21:24:36.110Z,99561.00
2018-09-06T21:27:06.492Z,99566.00
2018-09-06T21:29:36.839Z,99565.00
2018-09-06T21:32:07.172Z,99557.00
2018-09-06T21:34:37.860Z,99570.00
2018-09-06T21:37:08.261Z,99570.00
2018-09-06T21:39:38.511Z,99567.00
2018-09-06T21:42:08.691Z,99574.00
2018-09-06T21:44:38.926Z,99581.00
2018-09-06T21:47:09.104Z,99580.00
2018-09-06T21:49:39.499Z,99578.00
2018-09-06T21:52:09.782Z,99580.00
2018-09-06T21:54:39.942Z,99570.00
2018-09-06T21:57:10.147Z,99571.00
2018-09-06T21:59:40.438Z,99579.00
2018-09-06T22:02:14.655Z,99579.00
2018-09-06T22:04:44.870Z,99577.00
2018-09-06T22:07:15.088Z,99578.00
2018-09-06T22:09:45.325Z,99577.00
2018-09-06T22:12:17.320Z,99579.00
2018-09-06T22:14:49.829Z,99578.00
2018-09-06T22:17:20.095Z,99573.00
2018-09-06T22:19:50.507Z,99566.00
2018-09-06T22:22:20.826Z,99567.00
2018-09-06T22:24:51.095Z,99572.00
2018-09-06T22:27:21.349Z,99568.00
2018-09-06T22:29:51.558Z,99561.00
2018-09-06T22:32:21.781Z,99568.00
2018-09-06T22:34:52.143Z,99569.00
2018-09-06T22:37:22.393Z,99569.00
2018-09-06T22:39:52.656Z,99570.00
2018-09-06T22:42:22.843Z,99573.00
2018-09-06T22:44:53.113Z,99576.00
2018-09-06T22:47:23.463Z,99572.00
2018-09-06T22:49:53.601Z,99577.00
2018-09-06T22:52:24.157Z,99576.00
2018-09-06T22:54:54.560Z,99574.00
2018-09-06T22:57:24.904Z,99574.00
2018-09-06T22:59:55.121Z,99575.00
2018-09-06T23:02:29.370Z,99581.00
2018-09-06T23:04:59.579Z,99584.00
2018-09-06T23:07:29.949Z,99585.00
2018-09-06T23:10:00.229Z,99581.00
2018-09-06T23:12:30.541Z,99583.00
2018-09-06T23:15:01.071Z,99579.00
2018-09-06T23:17:31.303Z,99572.00
2018-09-06T23:20:01.561Z,99575.00
2018-09-06T23:22:31.992Z,99572.00
2018-09-06T23:25:02.246Z,99575.00
2018-09-06T23:27:32.480Z,99571.00
2018-09-06T23:30:02.785Z,99579.00
2018-09-06T23:32:33.260Z,99578.00
2018-09-06T23:35:03.589Z,99577.00
2018-09-06T23:37:34.313Z,99579.00
2018-09-06T23:40:04.663Z,99571.00
2018-09-06T23:42:35.080Z,99568.00
2018-09-06T23:45:05.367Z,99570.00
2018-09-06T23:47:35.681Z,99570.00
2018-09-06T23:50:05.968Z,99572.00
2018-09-06T23:52:36.404Z,99578.00
2018-09-06T23:55:06.834Z,99579.00
2018-09-06T23:57:37.076Z,99581.00
